createdAt,value
2022-10-26T00:01:16.473Z,15.38
2022-10-26T00:03:45.863Z,17.92
2022-10-26T00:06:21.991Z,19.48
2022-10-26T00:08:49.258Z,14.23
2022-10-26T00:11:16.725Z,12.73
2022-10-26T00:13:44.189Z,16.67
2022-10-26T00:16:26.592Z,13.70
2022-10-26T00:18:53.514Z,16.45
2022-10-26T00:21:20.525Z,16.15
2022-10-26T00:23:47.406Z,18.50
2022-10-26T00:26:14.221Z,18.55
2022-10-26T00:28:41.463Z,14.30
2022-10-26T00:31:14.793Z,18.40
2022-10-26T00:33:42.124Z,14.98
2022-10-26T00:36:10.360Z,16.65
2022-10-26T00:38:38.352Z,14.63
2022-10-26T00:41:05.613Z,14.75
2022-10-26T00:43:32.305Z,16.50
2022-10-26T00:46:00.412Z,19.15
2022-10-26T00:48:35.040Z,13.43
2022-10-26T00:51:12.475Z,17.42
2022-10-26T00:53:39.844Z,17.73
2022-10-26T00:56:07.189Z,16.77
2022-10-26T00:58:35.971Z,15.50
2022-10-26T01:01:03.135Z,12.90
2022-10-26T01:03:32.255Z,16.10
2022-10-26T01:05:59.503Z,13.77
2022-10-26T01:08:28.777Z,12.65
2022-10-26T01:10:58.414Z,19.80
2022-10-26T01:13:28.725Z,18.00
2022-10-26T01:17:00.380Z,18.25
2022-10-26T01:19:51.951Z,18.08
2022-10-26T01:22:49.953Z,13.77
2022-10-26T01:25:41.327Z,13.63
2022-10-26T01:28:31.830Z,19.52
2022-10-26T01:31:01.804Z,15.23
2022-10-26T01:33:35.190Z,21.15
2022-10-26T01:52:07.722Z,16.40
2022-10-26T01:54:56.516Z,18.58
2022-10-26T02:01:09.981Z,21.35
2022-10-26T02:16:40.342Z,16.20
2022-10-26T02:32:47.440Z,12.80
2022-10-26T02:36:27.933Z,18.23
2022-10-26T02:39:40.724Z,18.02
2022-10-26T02:43:17.433Z,22.10
2022-10-26T03:06:59.349Z,17.65
2022-10-26T03:14:25.184Z,15.73
2022-10-26T03:17:11.543Z,15.02
2022-10-26T03:34:10.194Z,17.33
2022-10-26T03:37:14.558Z,18.90
2022-10-26T03:40:57.607Z,15.73
2022-10-26T03:59:47.551Z,14.80
2022-10-26T04:10:29.285Z,9.68
2022-10-26T04:23:44.893Z,15.48
2022-10-26T04:35:03.254Z,12.57
2022-10-26T04:49:59.777Z,12.85
2022-10-26T05:03:35.444Z,16.38
2022-10-26T05:26:56.432Z,12.77
2022-10-26T05:33:48.233Z,13.85
2022-10-26T05:46:50.994Z,13.40
2022-10-26T06:06:32.952Z,21.00
2022-10-26T06:09:00.097Z,13.35
2022-10-26T06:11:27.312Z,15.93
2022-10-26T06:13:54.908Z,19.33
2022-10-26T06:16:42.008Z,15.88
2022-10-26T06:19:42.128Z,12.60
2022-10-26T06:22:33.019Z,16.13
2022-10-26T06:25:27.384Z,14.77
2022-10-26T06:31:18.745Z,13.43
2022-10-26T06:33:46.002Z,17.05
2022-10-26T06:36:25.390Z,21.77
2022-10-26T06:39:00.209Z,30.77
2022-10-26T06:41:27.702Z,16.63
2022-10-26T06:43:54.931Z,16.58
2022-10-26T06:46:28.103Z,19.80
2022-10-26T06:49:18.919Z,17.65
2022-10-26T06:51:59.174Z,14.93
2022-10-26T06:54:44.096Z,19.35
2022-10-26T06:57:13.497Z,20.35
2022-10-26T06:59:47.919Z,20.90
2022-10-26T07:02:15.442Z,15.52
2022-10-26T07:04:43.719Z,19.58
2022-10-26T07:07:18.744Z,21.05
2022-10-26T07:12:12.509Z,13.90
2022-10-26T07:14:39.448Z,18.75
2022-10-26T07:17:06.933Z,18.10
2022-10-26T07:19:33.731Z,22.63
2022-10-26T07:22:01.410Z,16.60
2022-10-26T07:24:31.428Z,20.33
2022-10-26T07:26:59.014Z,15.48
2022-10-26T07:29:27.447Z,21.77
2022-10-26T07:34:41.514Z,18.90
2022-10-26T07:37:08.529Z,11.00
2022-10-26T07:39:35.307Z,18.90
2022-10-26T07:42:02.149Z,16.83
2022-10-26T07:44:29.106Z,16.88
2022-10-26T07:46:55.868Z,18.00
2022-10-26T07:49:26.091Z,17.67
2022-10-26T07:51:54.773Z,16.70
2022-10-26T07:54:21.577Z,12.75
2022-10-26T07:56:51.748Z,16.80
2022-10-26T07:59:18.635Z,14.15
2022-10-26T08:01:45.555Z,16.70
2022-10-26T08:04:12.473Z,15.63
2022-10-26T08:06:39.315Z,19.90
2022-10-26T08:09:06.239Z,16.85
2022-10-26T08:11:33.292Z,20.48
2022-10-26T08:14:00.118Z,15.77
2022-10-26T08:16:27.068Z,24.80
2022-10-26T08:18:53.887Z,15.00
2022-10-26T08:21:30.390Z,16.73
2022-10-26T08:24:03.360Z,15.13
2022-10-26T08:26:30.809Z,14.88
2022-10-26T08:28:57.668Z,12.77
2022-10-26T08:31:24.749Z,17.55
2022-10-26T08:33:51.507Z,19.48
2022-10-26T08:36:24.555Z,16.25
2022-10-26T08:38:52.631Z,13.85
2022-10-26T08:41:36.408Z,15.35
2022-10-26T08:44:30.531Z,13.65
2022-10-26T08:47:08.461Z,12.30
2022-10-26T08:49:44.475Z,17.17
2022-10-26T08:52:19.221Z,15.90
2022-10-26T08:54:53.327Z,11.65
2022-10-26T08:57:38.460Z,12.48
2022-10-26T09:00:19.244Z,11.43
2022-10-26T09:02:51.271Z,13.23
2022-10-26T09:05:23.860Z,8.73
2022-10-26T09:08:04.487Z,12.25
2022-10-26T09:10:39.715Z,10.02
2022-10-26T09:13:56.385Z,9.35
2022-10-26T09:16:54.312Z,6.68
2022-10-26T09:19:24.436Z,9.98
2022-10-26T09:22:03.358Z,10.13
2022-10-26T09:24:39.196Z,10.43
2022-10-26T09:27:29.080Z,8.93
2022-10-26T09:30:18.615Z,8.38
2022-10-26T09:32:53.605Z,10.82
2022-10-26T09:35:50.091Z,11.18
2022-10-26T09:38:49.224Z,8.27
2022-10-26T09:41:39.145Z,10.43
2022-10-26T09:44:20.464Z,9.48
2022-10-26T09:47:05.212Z,8.93
2022-10-26T09:49:42.663Z,10.05
2022-10-26T09:54:36.517Z,10.23
2022-10-26T09:57:05.041Z,6.97
2022-10-26T09:59:38.724Z,10.60
2022-10-26T10:02:37.703Z,13.90
2022-10-26T10:05:50.693Z,9.57
2022-10-26T10:08:22.293Z,8.75
2022-10-26T10:11:08.367Z,8.35
2022-10-26T10:13:44.150Z,5.85
2022-10-26T10:16:20.872Z,12.07
2022-10-26T10:19:00.135Z,10.80
2022-10-26T10:21:39.183Z,10.60
2022-10-26T10:24:25.559Z,10.30
2022-10-26T10:27:17.527Z,8.13
2022-10-26T10:29:47.183Z,9.40
2022-10-26T10:32:23.360Z,6.60
2022-10-26T10:34:58.461Z,11.27
2022-10-26T10:40:24.474Z,9.65
2022-10-26T10:42:55.417Z,10.93
2022-10-26T10:45:23.085Z,10.52
2022-10-26T10:48:03.238Z,14.77
2022-10-26T10:50:31.750Z,13.43
2022-10-26T10:53:35.720Z,16.83
2022-10-26T10:56:20.644Z,13.05
2022-10-26T10:59:11.397Z,12.35
2022-10-26T11:01:56.915Z,14.27
2022-10-26T11:07:06.480Z,10.70
2022-10-26T11:09:38.148Z,15.40
2022-10-26T11:12:15.786Z,15.35
2022-10-26T11:14:53.819Z,13.32
2022-10-26T11:17:32.032Z,10.45
2022-10-26T11:20:16.188Z,15.57
2022-10-26T11:23:02.213Z,17.48
2022-10-26T11:25:44.726Z,19.75
2022-10-26T11:28:34.180Z,16.10
2022-10-26T11:31:11.308Z,15.90
2022-10-26T11:33:47.593Z,14.70
2022-10-26T11:36:22.055Z,14.57
2022-10-26T11:39:14.416Z,21.13
2022-10-26T11:41:51.628Z,16.95
2022-10-26T11:44:40.678Z,17.77
2022-10-26T11:47:22.667Z,17.13
2022-10-26T11:50:12.184Z,13.20
2022-10-26T11:53:10.950Z,14.90
2022-10-26T11:55:39.980Z,12.50
2022-10-26T11:58:11.695Z,13.15
2022-10-26T12:01:14.337Z,18.15
2022-10-26T12:03:50.868Z,17.55
2022-10-26T12:06:26.088Z,13.98
2022-10-26T12:09:18.155Z,14.38
2022-10-26T12:11:58.234Z,20.70
2022-10-26T12:14:37.981Z,14.80
2022-10-26T12:17:14.912Z,18.08
2022-10-26T12:19:54.561Z,21.85
2022-10-26T12:22:30.956Z,14.23
2022-10-26T12:25:16.062Z,15.65
2022-10-26T12:27:42.849Z,11.75
2022-10-26T12:30:19.008Z,17.95
2022-10-26T12:32:45.733Z,15.02
2022-10-26T12:35:44.982Z,13.27
2022-10-26T12:38:37.920Z,18.65
2022-10-26T12:41:18.713Z,15.80
2022-10-26T12:43:46.379Z,16.45
2022-10-26T12:46:13.266Z,16.35
2022-10-26T12:48:44.615Z,12.98
2022-10-26T12:51:24.939Z,13.35
2022-10-26T12:53:57.986Z,15.40
2022-10-26T12:56:55.550Z,19.60
2022-10-26T12:59:33.947Z,17.85
2022-10-26T13:02:31.820Z,13.70
2022-10-26T13:05:34.616Z,16.42
2022-10-26T13:08:06.711Z,15.93
2022-10-26T13:10:35.610Z,16.50
2022-10-26T13:13:06.593Z,15.20
2022-10-26T13:15:41.327Z,17.75
2022-10-26T13:18:18.033Z,13.50
2022-10-26T13:21:15.142Z,20.10
2022-10-26T13:23:46.791Z,14.90
2022-10-26T13:26:17.876Z,14.18
2022-10-26T13:29:01.122Z,13.35
2022-10-26T13:31:31.528Z,19.55
2022-10-26T13:37:13.307Z,17.42
2022-10-26T13:39:44.313Z,11.80
2022-10-26T13:42:20.153Z,18.67
2022-10-26T13:44:59.669Z,18.48
2022-10-26T13:47:49.274Z,18.70
2022-10-26T13:50:21.307Z,17.02
2022-10-26T13:52:54.873Z,15.50
2022-10-26T13:55:32.870Z,16.25
2022-10-26T13:58:18.006Z,15.38
2022-10-26T14:01:10.553Z,15.07
2022-10-26T14:03:38.418Z,21.73
2022-10-26T14:06:18.501Z,17.73
2022-10-26T14:08:49.540Z,16.30
2022-10-26T14:11:22.286Z,12.38
2022-10-26T14:13:51.235Z,15.90
2022-10-26T14:16:20.607Z,15.68
2022-10-26T14:18:49.380Z,16.75
2022-10-26T14:21:20.731Z,17.95
2022-10-26T14:23:58.853Z,20.30
2022-10-26T14:26:42.225Z,16.05
2022-10-26T14:29:20.986Z,16.77
2022-10-26T14:31:49.342Z,14.13
2022-10-26T14:34:17.312Z,18.45
2022-10-26T14:37:02.178Z,16.75
2022-10-26T14:39:46.408Z,14.18
2022-10-26T14:42:33.641Z,15.70
2022-10-26T14:45:02.504Z,16.33
2022-10-26T14:47:32.244Z,14.80
2022-10-26T14:52:36.213Z,15.25
2022-10-26T14:55:14.990Z,14.32
2022-10-26T14:57:45.159Z,16.73
2022-10-26T15:00:23.692Z,24.08
2022-10-26T15:02:56.563Z,15.93
2022-10-26T15:05:35.708Z,14.45
2022-10-26T15:08:03.476Z,15.77
2022-10-26T15:10:36.241Z,9.57
2022-10-26T15:13:25.486Z,12.85
2022-10-26T15:15:57.496Z,18.42
2022-10-26T15:18:30.577Z,15.10
2022-10-26T15:20:57.963Z,13.88
2022-10-26T15:23:28.228Z,15.65
2022-10-26T15:25:59.093Z,17.10
2022-10-26T15:28:39.556Z,12.70
2022-10-26T15:31:10.811Z,16.92
2022-10-26T15:34:03.232Z,15.18
2022-10-26T15:36:32.012Z,17.00
2022-10-26T15:39:00.050Z,14.43
2022-10-26T15:41:31.046Z,13.35
2022-10-26T15:44:01.730Z,12.80
2022-10-26T15:46:37.236Z,17.83
2022-10-26T15:49:08.056Z,13.48
2022-10-26T15:51:35.485Z,14.60
2022-10-26T15:54:04.672Z,14.32
2022-10-26T15:56:32.440Z,15.38
2022-10-26T15:58:59.487Z,16.05
2022-10-26T16:01:29.637Z,12.32
2022-10-26T16:03:56.496Z,17.98
2022-10-26T16:06:34.022Z,19.52
2022-10-26T16:09:04.115Z,13.20
2022-10-26T16:11:31.054Z,16.45
2022-10-26T16:14:01.071Z,14.77
2022-10-26T16:16:30.550Z,14.38
2022-10-26T16:19:18.407Z,16.58
2022-10-26T16:21:44.276Z,14.68
2022-10-26T16:24:12.056Z,14.80
2022-10-26T16:26:38.802Z,17.20
2022-10-26T16:29:05.548Z,13.95
2022-10-26T16:31:32.313Z,14.70
2022-10-26T16:34:01.787Z,15.60
2022-10-26T16:36:32.926Z,14.32
2022-10-26T16:39:00.039Z,14.48
2022-10-26T16:41:26.863Z,17.45
2022-10-26T16:43:53.640Z,14.98
2022-10-26T16:46:21.728Z,17.27
2022-10-26T16:48:50.423Z,18.10
2022-10-26T16:51:22.612Z,14.00
2022-10-26T16:53:54.115Z,18.77
2022-10-26T16:56:25.506Z,15.45
2022-10-26T16:58:52.952Z,17.77
2022-10-26T17:01:21.478Z,14.20
2022-10-26T17:03:51.741Z,20.20
2022-10-26T17:06:19.232Z,17.58
2022-10-26T17:08:46.123Z,18.83
2022-10-26T17:11:19.744Z,14.20
2022-10-26T17:13:47.761Z,22.50
2022-10-26T17:16:21.259Z,17.85
2022-10-26T17:18:48.910Z,17.80
2022-10-26T17:21:20.346Z,19.63
2022-10-26T17:23:47.256Z,23.30
2022-10-26T17:26:15.241Z,19.65
2022-10-26T17:28:42.181Z,20.00
2022-10-26T17:31:10.482Z,28.15
2022-10-26T17:33:39.559Z,27.63
2022-10-26T17:36:07.987Z,24.05
2022-10-26T17:38:38.293Z,30.45
2022-10-26T17:41:12.015Z,20.20
2022-10-26T17:43:40.806Z,23.48
2022-10-26T17:46:14.418Z,26.60
2022-10-26T17:48:41.492Z,28.60
2022-10-26T17:51:16.381Z,28.65
2022-10-26T17:53:51.288Z,24.13
2022-10-26T17:56:32.147Z,24.30
2022-10-26T17:59:03.983Z,26.45
2022-10-26T18:01:32.189Z,34.75
2022-10-26T18:04:00.568Z,27.33
2022-10-26T18:06:27.446Z,26.35
2022-10-26T18:08:57.854Z,22.90
2022-10-26T18:11:27.212Z,26.90
2022-10-26T18:13:58.172Z,24.33
2022-10-26T18:16:27.734Z,26.77
2022-10-26T18:19:01.658Z,26.48
2022-10-26T18:21:32.509Z,26.17
2022-10-26T18:23:59.915Z,23.70
2022-10-26T18:26:29.434Z,27.38
2022-10-26T18:29:00.862Z,20.17
2022-10-26T18:31:30.546Z,26.15
2022-10-26T18:34:03.643Z,23.42
2022-10-26T18:36:31.761Z,24.35
2022-10-26T18:38:58.719Z,23.65
2022-10-26T18:41:26.624Z,23.95
2022-10-26T18:43:59.076Z,27.15
2022-10-26T18:46:29.156Z,27.73
2022-10-26T18:48:58.247Z,24.55
2022-10-26T18:51:30.685Z,25.05
2022-10-26T18:53:58.631Z,23.27
2022-10-26T18:56:26.398Z,22.58
2022-10-26T18:58:58.550Z,24.25
2022-10-26T19:01:39.610Z,27.23
2022-10-26T19:04:09.295Z,29.17
2022-10-26T19:06:45.220Z,30.17
2022-10-26T19:09:12.644Z,23.63
2022-10-26T19:11:39.668Z,29.98
2022-10-26T19:14:07.820Z,25.80
2022-10-26T19:16:50.862Z,19.60
2022-10-26T19:19:19.767Z,23.20
2022-10-26T19:21:49.425Z,28.20
2022-10-26T19:24:20.223Z,26.88
2022-10-26T19:26:49.102Z,26.98
2022-10-26T19:29:17.814Z,27.88
2022-10-26T19:31:46.228Z,24.40
2022-10-26T19:34:15.848Z,28.73
2022-10-26T19:36:45.243Z,23.70
2022-10-26T19:39:14.487Z,26.63
2022-10-26T19:41:41.417Z,23.45
2022-10-26T19:44:11.554Z,22.98
2022-10-26T19:46:39.865Z,26.60
2022-10-26T19:49:06.814Z,31.20
2022-10-26T19:51:33.671Z,26.88
2022-10-26T19:54:03.841Z,25.05
2022-10-26T19:56:32.652Z,27.90
2022-10-26T19:58:59.882Z,25.10
2022-10-26T20:01:26.899Z,25.58
2022-10-26T20:03:53.830Z,27.55
2022-10-26T20:06:20.812Z,25.65
2022-10-26T20:08:49.388Z,27.27
2022-10-26T20:11:18.591Z,24.70
2022-10-26T20:13:47.325Z,30.27
2022-10-26T20:16:16.182Z,29.08
2022-10-26T20:18:47.519Z,31.35
2022-10-26T20:21:17.379Z,24.92
2022-10-26T20:23:45.171Z,36.55
2022-10-26T20:26:19.058Z,29.25
2022-10-26T20:31:15.443Z,30.20
2022-10-26T20:33:42.292Z,39.53
2022-10-26T20:36:09.151Z,26.38
2022-10-26T20:38:36.739Z,29.13
2022-10-26T20:41:07.708Z,35.28
2022-10-26T20:43:40.199Z,35.08
2022-10-26T20:46:33.526Z,31.25
2022-10-26T20:49:00.713Z,31.27
2022-10-26T20:52:26.014Z,34.83
2022-10-26T20:55:04.685Z,31.67
2022-10-26T20:57:33.261Z,33.55
2022-10-26T21:00:09.166Z,32.92
2022-10-26T21:02:36.044Z,40.03
2022-10-26T21:05:03.556Z,33.03
2022-10-26T21:07:30.371Z,32.35
2022-10-26T21:09:57.133Z,38.53
2022-10-26T21:12:24.173Z,35.42
2022-10-26T21:14:50.969Z,37.75
2022-10-26T21:17:17.706Z,42.80
2022-10-26T21:19:44.782Z,42.95
2022-10-26T21:22:11.629Z,29.83
2022-10-26T21:24:38.392Z,33.80
2022-10-26T21:27:05.114Z,41.53
2022-10-26T21:29:31.874Z,33.63
2022-10-26T21:31:58.645Z,36.67
2022-10-26T21:34:25.503Z,41.38
2022-10-26T21:36:52.307Z,38.38
2022-10-26T21:39:19.256Z,44.25
2022-10-26T21:41:45.995Z,38.35
2022-10-26T21:44:24.725Z,49.65
2022-10-26T21:46:59.482Z,39.25
2022-10-26T21:49:26.235Z,37.50
2022-10-26T21:51:53.060Z,40.78
2022-10-26T21:54:19.832Z,43.90
2022-10-26T21:56:46.567Z,44.67
2022-10-26T21:59:13.299Z,41.97
2022-10-26T22:01:40.398Z,44.72
2022-10-26T22:04:07.530Z,37.80
2022-10-26T22:06:34.385Z,42.35
2022-10-26T22:09:01.121Z,32.78
2022-10-26T22:11:27.963Z,37.83
2022-10-26T22:13:54.733Z,44.33
2022-10-26T22:16:28.239Z,41.17
2022-10-26T22:18:58.226Z,39.80
2022-10-26T22:21:27.585Z,36.38
2022-10-26T22:23:55.247Z,45.92
2022-10-26T22:26:24.707Z,41.47
2022-10-26T22:28:55.403Z,45.85
2022-10-26T22:36:45.127Z,52.72
2022-10-26T22:39:11.872Z,40.80
2022-10-26T22:41:38.711Z,43.67
2022-10-26T22:44:05.695Z,54.28
2022-10-26T22:46:32.698Z,44.85
2022-10-26T22:49:01.999Z,44.78
2022-10-26T22:51:34.494Z,44.67
2022-10-26T22:54:03.705Z,51.80
2022-10-26T22:56:32.856Z,47.55
2022-10-26T22:58:59.843Z,40.17
2022-10-26T23:01:33.661Z,45.03
2022-10-26T23:04:00.771Z,39.03
2022-10-26T23:06:31.814Z,46.20
2022-10-26T23:08:58.945Z,45.35
2022-10-26T23:11:28.733Z,40.63
2022-10-26T23:13:58.566Z,49.40
2022-10-26T23:16:26.166Z,50.15
2022-10-26T23:18:56.184Z,53.53
2022-10-26T23:24:11.956Z,53.13
2022-10-26T23:26:38.691Z,38.08
2022-10-26T23:29:06.250Z,38.63
2022-10-26T23:31:32.976Z,55.63
2022-10-26T23:33:59.745Z,49.80
2022-10-26T23:36:26.743Z,41.75
2022-10-26T23:38:53.650Z,40.50
2022-10-26T23:41:20.400Z,41.33
2022-10-26T23:43:47.151Z,45.50
2022-10-26T23:46:14.052Z,43.65
2022-10-26T23:48:41.212Z,51.63
2022-10-26T23:51:07.986Z,54.10
2022-10-26T23:53:35.129Z,39.20
2022-10-26T23:56:02.132Z,50.38
2022-10-26T23:58:29.234Z,36.45
